createdAt,value
2018-09-22T00:00:57.256Z,73.00
2018-09-22T00:03:27.643Z,73.50
2018-09-22T00:05:58.030Z,73.90
2018-09-22T00:08:28.374Z,73.80
2018-09-22T00:13:42.955Z,74.20
2018-09-22T00:16:14.126Z,74.50
2018-09-22T00:18:44.506Z,74.50
2018-09-22T00:21:14.913Z,74.80
2018-09-22T00:23:45.293Z,75.00
2018-09-22T00:26:15.622Z,75.50
2018-09-22T00:28:46.022Z,75.80
2018-09-22T00:31:17.170Z,76.20
2018-09-22T00:33:48.494Z,76.10
2018-09-22T00:36:18.907Z,76.00
2018-09-22T00:38:49.303Z,76.70
2018-09-22T00:41:20.396Z,76.70
2018-09-22T00:43:50.753Z,77.40
2018-09-22T00:46:21.149Z,77.40
2018-09-22T00:48:51.537Z,78.10
2018-09-22T00:51:21.959Z,77.90
2018-09-22T00:53:52.571Z,78.20
2018-09-22T00:56:22.961Z,78.80
2018-09-22T00:58:53.456Z,78.10
2018-09-22T01:01:31.155Z,77.50
2018-09-22T01:04:21.022Z,78.00
2018-09-22T01:06:51.339Z,78.30
2018-09-22T01:09:21.732Z,79.10
2018-09-22T01:11:53.209Z,79.50
2018-09-22T01:14:23.610Z,78.80
2018-09-22T01:16:55.032Z,78.60
2018-09-22T01:19:44.888Z,79.10
2018-09-22T01:22:15.285Z,78.80
2018-09-22T01:24:46.447Z,79.10
2018-09-22T01:27:16.875Z,79.00
2018-09-22T01:29:47.202Z,79.30
2018-09-22T01:32:17.601Z,79.50
2018-09-22T01:34:48.773Z,79.80
2018-09-22T01:37:19.159Z,79.70
2018-09-22T01:39:49.484Z,80.40
2018-09-22T01:42:19.832Z,80.10
2018-09-22T01:44:50.974Z,79.50
2018-09-22T01:47:22.122Z,79.40
2018-09-22T01:49:53.309Z,79.60
2018-09-22T01:52:45.863Z,79.80
2018-09-22T01:55:16.220Z,79.80
2018-09-22T01:57:46.600Z,79.90
2018-09-22T02:00:19.049Z,79.50
2018-09-22T02:02:49.471Z,80.00
2018-09-22T02:05:20.562Z,80.20
2018-09-22T02:07:50.950Z,80.20
2018-09-22T02:10:21.357Z,79.50
2018-09-22T02:12:52.511Z,79.20
2018-09-22T02:15:22.893Z,79.20
2018-09-22T02:17:53.574Z,79.70
2018-09-22T02:20:23.961Z,80.00
2018-09-22T02:22:54.340Z,79.80
2018-09-22T02:25:24.775Z,80.10
2018-09-22T02:27:55.151Z,80.20
2018-09-22T02:30:26.297Z,79.60
2018-09-22T02:32:56.650Z,79.90
2018-09-22T02:35:27.042Z,79.80
2018-09-22T02:37:57.440Z,79.70
2018-09-22T02:40:27.879Z,79.40
2018-09-22T02:42:59.312Z,80.10
2018-09-22T02:45:49.124Z,79.10
2018-09-22T02:48:19.508Z,79.40
2018-09-22T02:50:49.898Z,81.30
2018-09-22T02:53:21.070Z,80.40
2018-09-22T02:55:51.458Z,80.40
2018-09-22T02:58:21.849Z,80.70
2018-09-22T03:00:52.196Z,81.10
2018-09-22T03:03:22.589Z,82.00
2018-09-22T03:05:56.044Z,82.40
2018-09-22T03:08:27.229Z,82.40
2018-09-22T03:10:57.558Z,82.00
2018-09-22T03:13:28.022Z,81.00
2018-09-22T03:15:59.130Z,82.20
2018-09-22T03:18:29.537Z,82.20
2018-09-22T03:20:59.942Z,81.80
2018-09-22T03:23:31.117Z,81.80
2018-09-22T03:26:01.510Z,81.70
2018-09-22T03:28:31.894Z,82.20
2018-09-22T03:31:21.688Z,82.40
2018-09-22T03:34:12.462Z,82.20
2018-09-22T03:36:42.896Z,82.90
2018-09-22T03:39:13.280Z,82.70
2018-09-22T03:41:43.680Z,82.50
2018-09-22T03:44:16.769Z,82.70
2018-09-22T03:46:47.167Z,82.60
2018-09-22T03:49:19.531Z,83.20
2018-09-22T03:51:49.943Z,83.00
2018-09-22T03:54:21.108Z,82.90
2018-09-22T03:56:51.492Z,82.90
2018-09-22T03:59:21.918Z,82.50
2018-09-22T04:01:52.321Z,82.70
2018-09-22T04:04:22.714Z,83.20
2018-09-22T04:06:53.778Z,83.20
2018-09-22T04:09:45.585Z,83.60
2018-09-22T04:12:15.994Z,83.40
2018-09-22T04:14:46.400Z,83.50
2018-09-22T04:17:17.492Z,83.90
2018-09-22T04:19:54.055Z,83.80
2018-09-22T04:22:24.440Z,83.60
2018-09-22T04:27:44.054Z,83.90
2018-09-22T04:30:14.449Z,83.90
2018-09-22T04:32:44.771Z,83.70
2018-09-22T04:35:15.187Z,84.00
2018-09-22T04:37:45.570Z,84.40
2018-09-22T04:40:15.953Z,84.20
2018-09-22T04:42:46.367Z,84.00
2018-09-22T04:45:16.762Z,84.00
2018-09-22T04:47:47.141Z,84.00
2018-09-22T04:50:17.551Z,83.90
2018-09-22T04:52:47.879Z,85.10
2018-09-22T04:55:18.277Z,84.60
2018-09-22T04:57:48.714Z,84.50
2018-09-22T05:00:20.146Z,84.60
2018-09-22T05:02:51.562Z,85.00
2018-09-22T05:05:22.750Z,85.50
2018-09-22T05:08:01.002Z,85.40
2018-09-22T05:10:31.361Z,84.90
2018-09-22T05:13:01.758Z,84.70
2018-09-22T05:15:33.171Z,85.00
2018-09-22T05:18:22.959Z,85.30
2018-09-22T05:21:13.724Z,85.40
2018-09-22T05:23:44.143Z,84.90
2018-09-22T05:26:15.313Z,86.10
2018-09-22T05:28:45.701Z,85.20
2018-09-22T05:31:16.817Z,85.30
2018-09-22T05:33:47.210Z,85.20
2018-09-22T05:36:17.613Z,85.30
2018-09-22T05:38:48.790Z,85.70
2018-09-22T05:41:23.280Z,85.60
2018-09-22T05:43:54.450Z,85.70
2018-09-22T05:46:24.873Z,85.60
2018-09-22T05:48:55.255Z,85.80
2018-09-22T05:51:25.647Z,86.10
2018-09-22T05:54:14.416Z,86.00
2018-09-22T05:56:44.809Z,86.50
2018-09-22T05:59:15.196Z,85.60
2018-09-22T06:01:45.614Z,86.00
2018-09-22T06:04:15.945Z,86.20
2018-09-22T06:06:46.325Z,86.10
2018-09-22T06:09:16.663Z,85.60
2018-09-22T06:11:48.076Z,86.00
2018-09-22T06:14:18.469Z,86.40
2018-09-22T06:16:48.995Z,85.80
2018-09-22T06:19:19.319Z,85.90
2018-09-22T06:21:49.720Z,85.80
2018-09-22T06:24:40.545Z,85.60
2018-09-22T06:27:10.937Z,85.60
2018-09-22T06:29:41.266Z,86.10
2018-09-22T06:32:11.697Z,85.80
2018-09-22T06:34:49.412Z,85.50
2018-09-22T06:37:19.840Z,85.70
2018-09-22T06:40:09.334Z,85.60
2018-09-22T06:42:39.689Z,85.60
2018-09-22T06:45:10.848Z,86.20
2018-09-22T06:47:42.186Z,85.40
2018-09-22T06:50:13.401Z,85.20
2018-09-22T06:52:44.821Z,85.10
2018-09-22T06:55:15.901Z,85.20
2018-09-22T06:57:46.318Z,84.50
2018-09-22T07:00:16.718Z,84.70
2018-09-22T07:03:10.140Z,84.50
2018-09-22T07:05:41.305Z,84.40
2018-09-22T07:08:11.628Z,84.30
2018-09-22T07:10:42.730Z,84.70
2018-09-22T07:13:13.114Z,84.10
2018-09-22T07:15:43.511Z,84.90
2018-09-22T07:18:14.695Z,83.70
2018-09-22T07:20:47.113Z,83.70
2018-09-22T07:23:18.207Z,83.50
2018-09-22T07:25:52.720Z,83.40
2018-09-22T07:28:23.757Z,83.50
2018-09-22T07:30:54.159Z,83.50
2018-09-22T07:33:24.559Z,83.10
2018-09-22T07:35:54.956Z,82.70
2018-09-22T07:38:26.036Z,82.50
2018-09-22T07:40:56.459Z,81.70
2018-09-22T07:43:26.838Z,82.00
2018-09-22T07:45:57.433Z,82.00
2018-09-22T07:48:28.606Z,81.60
2018-09-22T07:50:59.010Z,81.50
2018-09-22T07:53:29.388Z,81.50
2018-09-22T07:55:59.805Z,81.40
2018-09-22T07:58:35.359Z,81.30
2018-09-22T08:01:06.498Z,80.60
2018-09-22T08:03:36.880Z,80.50
2018-09-22T08:06:09.304Z,79.90
2018-09-22T08:08:39.702Z,78.40
2018-09-22T08:11:10.026Z,79.10
2018-09-22T08:13:40.413Z,79.20
2018-09-22T08:16:10.820Z,79.10
2018-09-22T08:18:41.213Z,79.00
2018-09-22T08:21:11.541Z,78.70
2018-09-22T08:23:41.957Z,78.10
2018-09-22T08:26:12.336Z,77.40
2018-09-22T08:28:42.720Z,77.70
2018-09-22T08:31:13.138Z,77.70
2018-09-22T08:33:43.527Z,77.20
2018-09-22T08:36:13.966Z,75.80
2018-09-22T08:38:50.405Z,76.40
2018-09-22T08:44:05.307Z,73.80
2018-09-22T08:46:35.697Z,73.80
2018-09-22T08:49:12.296Z,74.30
2018-09-22T08:51:42.700Z,72.90
2018-09-22T08:54:32.490Z,72.80
2018-09-22T08:57:24.291Z,73.10
2018-09-22T08:59:54.882Z,73.20
2018-09-22T09:02:25.205Z,72.90
2018-09-22T09:04:55.613Z,72.50
2018-09-22T09:07:33.157Z,72.50
2018-09-22T09:10:03.552Z,72.90
2018-09-22T09:12:33.877Z,72.80
2018-09-22T09:15:04.994Z,71.20
2018-09-22T09:17:35.393Z,71.10
2018-09-22T09:20:05.790Z,72.00
2018-09-22T09:22:36.984Z,71.20
2018-09-22T09:25:27.785Z,71.10
2018-09-22T09:27:58.858Z,70.80
2018-09-22T09:30:29.249Z,70.80
2018-09-22T09:33:06.986Z,71.00
2018-09-22T09:35:37.377Z,70.90
2018-09-22T09:38:10.888Z,70.50
2018-09-22T09:40:42.017Z,69.90
2018-09-22T09:43:12.461Z,69.90
2018-09-22T09:45:42.817Z,69.70
2018-09-22T09:48:13.240Z,69.60
2018-09-22T09:50:43.641Z,69.00
2018-09-22T09:53:14.041Z,69.70
2018-09-22T09:55:44.457Z,69.10
2018-09-22T09:58:14.852Z,68.80
2018-09-22T10:00:45.990Z,68.50
2018-09-22T10:03:16.417Z,69.00
2018-09-22T10:05:47.456Z,68.80
2018-09-22T10:08:17.845Z,68.80
2018-09-22T10:10:48.239Z,68.20
2018-09-22T10:13:19.395Z,67.70
2018-09-22T10:15:49.781Z,67.70
2018-09-22T10:18:20.195Z,68.40
2018-09-22T10:20:52.262Z,68.70
2018-09-22T10:23:22.647Z,68.80
2018-09-22T10:25:53.247Z,68.80
2018-09-22T10:28:24.407Z,69.40
2018-09-22T10:30:55.560Z,69.80
2018-09-22T10:33:25.998Z,69.70
2018-09-22T10:35:56.395Z,69.30
2018-09-22T10:38:26.801Z,68.00
2018-09-22T10:40:57.412Z,68.40
2018-09-22T10:43:27.794Z,68.50
2018-09-22T10:45:58.178Z,67.70
2018-09-22T10:48:28.534Z,67.50
2018-09-22T10:50:59.690Z,67.60
2018-09-22T10:53:30.074Z,67.40
2018-09-22T10:56:00.541Z,66.80
2018-09-22T10:58:31.687Z,64.90
2018-09-22T11:01:02.090Z,64.90
2018-09-22T11:03:32.499Z,65.90
2018-09-22T11:06:03.891Z,66.60
2018-09-22T11:08:34.296Z,65.20
2018-09-22T11:11:04.721Z,65.90
2018-09-22T11:13:35.119Z,66.60
2018-09-22T11:16:06.540Z,66.50
2018-09-22T11:18:38.019Z,67.00
2018-09-22T11:21:10.118Z,66.20
2018-09-22T11:23:41.526Z,65.60
2018-09-22T11:26:31.030Z,66.30
2018-09-22T11:29:01.410Z,65.30
2018-09-22T11:31:31.803Z,66.20
2018-09-22T11:34:02.998Z,66.10
2018-09-22T11:36:52.687Z,66.00
2018-09-22T11:39:23.103Z,66.40
2018-09-22T11:41:55.557Z,65.80
2018-09-22T11:44:25.877Z,66.50
2018-09-22T11:46:56.280Z,67.50
2018-09-22T11:49:27.442Z,66.90
2018-09-22T11:51:58.540Z,63.80
2018-09-22T11:54:28.964Z,63.70
2018-09-22T11:56:59.379Z,64.00
2018-09-22T11:59:29.782Z,64.90
2018-09-22T12:02:00.278Z,64.10
2018-09-22T12:04:30.608Z,65.20
2018-09-22T12:07:01.004Z,64.80
2018-09-22T12:09:31.418Z,65.00
2018-09-22T12:12:02.841Z,65.20
2018-09-22T12:14:33.235Z,66.10
2018-09-22T12:17:03.653Z,66.50
2018-09-22T12:19:34.048Z,65.70
2018-09-22T12:22:06.480Z,66.40
2018-09-22T12:24:37.681Z,66.70
2018-09-22T12:27:08.092Z,66.70
2018-09-22T12:29:38.483Z,66.60
2018-09-22T12:32:08.898Z,66.80
2018-09-22T12:34:40.065Z,66.40
2018-09-22T12:37:10.522Z,66.30
2018-09-22T12:39:40.875Z,66.90
2018-09-22T12:42:11.256Z,68.70
2018-09-22T12:44:41.641Z,70.60
2018-09-22T12:47:12.815Z,70.70
2018-09-22T12:49:43.269Z,70.70
2018-09-22T12:52:13.523Z,71.30
2018-09-22T12:54:43.939Z,72.00
2018-09-22T12:57:14.345Z,72.60
2018-09-22T13:00:04.149Z,75.00
2018-09-22T13:05:22.306Z,80.00
2018-09-22T13:07:52.705Z,79.70
2018-09-22T13:10:23.038Z,81.70
2018-09-22T13:12:54.481Z,82.60
2018-09-22T13:15:24.882Z,83.70
2018-09-22T13:17:56.036Z,85.40
2018-09-22T13:20:26.465Z,85.40
2018-09-22T13:22:56.875Z,87.60
2018-09-22T13:25:28.023Z,87.70
2018-09-22T13:27:59.136Z,86.10
2018-09-22T13:30:29.550Z,86.10
2018-09-22T13:32:59.947Z,86.20
2018-09-22T13:35:30.377Z,84.80
2018-09-22T13:38:02.828Z,84.90
2018-09-22T13:40:34.005Z,82.40
2018-09-22T13:43:11.605Z,82.20
2018-09-22T13:45:52.064Z,83.20
2018-09-22T13:48:29.659Z,79.50
2018-09-22T13:51:04.155Z,80.90
2018-09-22T13:53:34.509Z,79.10
2018-09-22T13:56:09.059Z,79.40
2018-09-22T13:58:39.444Z,77.90
2018-09-22T14:01:09.849Z,80.80
2018-09-22T14:03:40.261Z,77.80
2018-09-22T14:06:10.684Z,76.60
2018-09-22T14:08:41.085Z,77.40
2018-09-22T14:11:11.498Z,78.90
2018-09-22T14:13:49.218Z,76.80
2018-09-22T14:16:19.603Z,78.10
2018-09-22T14:18:50.021Z,77.30
2018-09-22T14:21:20.476Z,77.50
2018-09-22T14:23:50.847Z,77.90
2018-09-22T14:26:21.227Z,75.40
2018-09-22T14:28:51.650Z,79.10
2018-09-22T14:31:28.196Z,72.70
2018-09-22T14:33:58.556Z,72.60
2018-09-22T14:36:28.939Z,71.60
2018-09-22T14:39:00.088Z,71.30
2018-09-22T14:41:30.524Z,71.30
2018-09-22T14:44:00.899Z,71.50
2018-09-22T14:46:31.282Z,72.70
2018-09-22T14:49:01.692Z,72.70
2018-09-22T14:51:33.901Z,73.20
2018-09-22T14:54:10.450Z,73.10
2018-09-22T14:56:40.841Z,72.50
2018-09-22T14:59:11.235Z,73.40
2018-09-22T15:01:41.950Z,72.90
2018-09-22T15:04:12.198Z,72.90
2018-09-22T15:06:42.567Z,72.50
2018-09-22T15:09:13.689Z,72.90
2018-09-22T15:11:44.070Z,72.70
2018-09-22T15:14:18.545Z,71.30
2018-09-22T15:16:49.735Z,71.00
2018-09-22T15:19:24.206Z,70.90
2018-09-22T15:21:54.596Z,71.00
2018-09-22T15:24:45.391Z,70.90
2018-09-22T15:27:20.816Z,70.60
2018-09-22T15:29:51.249Z,70.00
2018-09-22T15:32:24.406Z,69.60
2018-09-22T15:34:54.724Z,69.30
2018-09-22T15:37:25.166Z,69.90
2018-09-22T15:39:56.307Z,69.30
2018-09-22T15:42:26.696Z,69.30
2018-09-22T15:44:57.097Z,69.50
2018-09-22T15:47:27.475Z,67.50
2018-09-22T15:49:57.858Z,68.30
2018-09-22T15:52:31.351Z,68.00
2018-09-22T15:55:01.748Z,67.50
2018-09-22T15:57:32.896Z,67.90
2018-09-22T16:00:03.323Z,67.90
2018-09-22T16:02:34.484Z,68.20
2018-09-22T16:05:04.876Z,68.20
2018-09-22T16:07:35.279Z,67.00
2018-09-22T16:10:05.673Z,65.70
2018-09-22T16:12:36.004Z,64.60
2018-09-22T16:15:06.403Z,64.30
2018-09-22T16:17:36.805Z,63.80
2018-09-22T16:20:07.851Z,64.30
2018-09-22T16:22:38.240Z,62.60
2018-09-22T16:28:01.403Z,62.00
2018-09-22T16:30:33.835Z,62.80
2018-09-22T16:33:04.990Z,64.00
2018-09-22T16:35:36.181Z,64.30
2018-09-22T16:38:26.886Z,64.10
2018-09-22T16:41:00.359Z,64.70
2018-09-22T16:43:30.797Z,63.20
2018-09-22T16:46:01.122Z,64.60
2018-09-22T16:48:33.506Z,65.00
2018-09-22T16:51:13.957Z,68.30
2018-09-22T16:53:44.301Z,70.20
2018-09-22T16:56:16.009Z,69.80
2018-09-22T16:58:47.459Z,68.90
2018-09-22T17:01:18.664Z,67.90
2018-09-22T17:03:48.988Z,67.90
2018-09-22T17:06:19.386Z,68.60
2018-09-22T17:08:49.792Z,68.60
2018-09-22T17:11:20.295Z,67.80
2018-09-22T17:13:50.690Z,67.50
2018-09-22T17:16:21.119Z,67.20
2018-09-22T17:18:54.407Z,67.90
2018-09-22T17:21:32.145Z,67.80
2018-09-22T17:24:02.532Z,67.00
2018-09-22T17:26:35.812Z,67.20
2018-09-22T17:29:06.228Z,67.50
2018-09-22T17:31:36.655Z,66.80
2018-09-22T17:34:06.980Z,66.30
2018-09-22T17:36:42.682Z,66.70
2018-09-22T17:39:14.991Z,66.70
2018-09-22T17:41:47.809Z,66.60
2018-09-22T17:44:22.478Z,66.30
2018-09-22T17:46:52.870Z,66.80
2018-09-22T17:49:30.649Z,66.50
2018-09-22T17:52:03.786Z,66.60
2018-09-22T17:54:34.190Z,67.30
2018-09-22T17:57:04.611Z,66.70
2018-09-22T17:59:40.633Z,66.80
2018-09-22T18:02:11.002Z,67.00
2018-09-22T18:04:41.393Z,67.00
2018-09-22T18:07:18.135Z,66.80
2018-09-22T18:09:51.248Z,66.70
2018-09-22T18:12:22.365Z,66.60
2018-09-22T18:14:52.788Z,66.60
2018-09-22T18:17:23.185Z,65.90
2018-09-22T18:19:57.686Z,66.10
2018-09-22T18:22:28.116Z,65.30
2018-09-22T18:24:58.510Z,65.40
2018-09-22T18:27:28.906Z,66.30
2018-09-22T18:30:05.306Z,66.70
2018-09-22T18:32:36.473Z,66.50
2018-09-22T18:35:06.858Z,66.10
2018-09-22T18:37:38.054Z,66.40
2018-09-22T18:40:11.277Z,66.60
2018-09-22T18:42:42.875Z,66.50
2018-09-22T18:45:14.072Z,65.40
2018-09-22T18:47:53.152Z,65.40
2018-09-22T18:50:23.503Z,65.60
2018-09-22T18:52:56.601Z,65.80
2018-09-22T18:55:27.013Z,66.20
2018-09-22T19:00:49.136Z,68.20
2018-09-22T19:03:19.497Z,70.20
2018-09-22T19:05:49.926Z,71.50
2018-09-22T19:08:20.306Z,73.40
2018-09-22T19:10:50.723Z,75.40
2018-09-22T19:13:21.121Z,83.40
2018-09-22T19:15:52.430Z,88.80
2018-09-22T19:18:23.615Z,92.20
2018-09-22T19:20:59.113Z,92.30
2018-09-22T19:23:30.292Z,93.90
2018-09-22T19:26:00.692Z,93.80
2018-09-22T19:28:31.863Z,93.80
2018-09-22T19:31:02.339Z,93.80
2018-09-22T19:33:32.692Z,94.30
2018-09-22T19:36:03.018Z,94.40
2018-09-22T19:38:33.437Z,94.30
2018-09-22T19:41:04.582Z,94.20
2018-09-22T19:43:35.768Z,95.40
2018-09-22T19:46:06.116Z,95.00
2018-09-22T19:48:40.581Z,95.20
2018-09-22T19:51:11.769Z,95.80
2018-09-22T19:53:46.250Z,95.80
2018-09-22T19:56:17.434Z,96.60
2018-09-22T19:58:50.899Z,96.60
2018-09-22T20:01:21.312Z,97.10
2018-09-22T20:03:51.652Z,96.90
2018-09-22T20:06:21.990Z,97.20
2018-09-22T20:08:52.403Z,97.80
2018-09-22T20:11:24.009Z,98.60
2018-09-22T20:13:58.672Z,98.50
2018-09-22T20:16:29.073Z,98.60
2018-09-22T20:19:00.442Z,99.00
2018-09-22T20:21:30.827Z,99.90
2018-09-22T20:24:01.257Z,99.90
2018-09-22T20:26:31.646Z,99.90
2018-09-22T20:29:02.798Z,99.90
2018-09-22T20:31:33.179Z,99.90
2018-09-22T20:34:04.611Z,99.90
2018-09-22T20:36:42.318Z,99.90
2018-09-22T20:39:12.736Z,99.90
2018-09-22T20:41:49.253Z,99.90
2018-09-22T20:44:20.462Z,99.90
2018-09-22T20:46:51.795Z,99.90
2018-09-22T20:49:24.264Z,99.90
2018-09-22T20:51:59.825Z,99.90
2018-09-22T20:54:30.146Z,99.90
2018-09-22T20:57:19.688Z,99.90
2018-09-22T20:59:50.090Z,99.90
2018-09-22T21:02:21.258Z,99.90
2018-09-22T21:04:51.663Z,99.90
2018-09-22T21:07:22.055Z,99.90
2018-09-22T21:09:52.437Z,99.90
2018-09-22T21:12:22.880Z,99.90
2018-09-22T21:14:53.295Z,99.90
2018-09-22T21:17:23.694Z,99.90
2018-09-22T21:19:54.049Z,99.90
2018-09-22T21:22:26.484Z,99.90
2018-09-22T21:24:56.877Z,99.90
2018-09-22T21:27:49.493Z,99.90
2018-09-22T21:30:20.661Z,99.90
2018-09-22T21:32:54.128Z,99.90
2018-09-22T21:35:25.308Z,99.90
2018-09-22T21:37:55.709Z,99.90
2018-09-22T21:40:28.277Z,99.90
2018-09-22T21:42:59.448Z,99.90
2018-09-22T21:45:29.788Z,99.90
2018-09-22T21:48:06.357Z,99.90
2018-09-22T21:50:38.800Z,99.90
2018-09-22T21:53:09.190Z,99.90
2018-09-22T21:55:39.618Z,99.90
2018-09-22T21:58:10.014Z,99.90
2018-09-22T22:00:43.137Z,99.90
2018-09-22T22:03:13.555Z,99.90
2018-09-22T22:05:43.948Z,99.90
2018-09-22T22:08:15.036Z,99.90
2018-09-22T22:10:45.395Z,99.90
2018-09-22T22:13:15.716Z,99.90
2018-09-22T22:15:46.112Z,99.90
2018-09-22T22:18:16.558Z,99.90
2018-09-22T22:20:46.880Z,99.90
2018-09-22T22:23:18.089Z,99.90
2018-09-22T22:25:48.520Z,99.90
2018-09-22T22:28:38.297Z,99.90
2018-09-22T22:31:10.697Z,99.90
2018-09-22T22:33:41.028Z,99.90
2018-09-22T22:36:11.410Z,99.90
2018-09-22T22:38:43.862Z,99.90
2018-09-22T22:41:14.177Z,99.90
2018-09-22T22:43:44.630Z,99.90
2018-09-22T22:46:15.063Z,99.90
2018-09-22T22:48:45.447Z,99.90
2018-09-22T22:51:16.608Z,99.90
2018-09-22T22:53:47.030Z,99.90
2018-09-22T22:56:17.411Z,99.90
2018-09-22T22:58:47.796Z,99.90
2018-09-22T23:01:18.208Z,99.90
2018-09-22T23:03:48.597Z,99.90
2018-09-22T23:06:18.977Z,99.90
2018-09-22T23:08:49.390Z,99.90
2018-09-22T23:11:19.774Z,99.90
2018-09-22T23:13:50.173Z,99.90
2018-09-22T23:16:20.579Z,99.90
2018-09-22T23:21:38.720Z,99.90
2018-09-22T23:24:09.875Z,99.90
2018-09-22T23:26:40.197Z,99.90
2018-09-22T23:29:10.610Z,99.90
2018-09-22T23:31:41.758Z,99.90
2018-09-22T23:34:12.895Z,99.90
2018-09-22T23:36:43.954Z,99.90
2018-09-22T23:39:14.361Z,99.90
2018-09-22T23:41:44.738Z,99.90
2018-09-22T23:44:17.188Z,99.90
2018-09-22T23:46:48.348Z,99.90
2018-09-22T23:49:18.731Z,99.90
2018-09-22T23:51:49.149Z,99.90
2018-09-22T23:54:19.542Z,99.90
2018-09-22T23:56:56.023Z,99.90
2018-09-22T23:59:46.806Z,99.90
